createdAt,value
2018-12-10T00:00:42.171Z,77.73
2018-12-10T00:03:18.112Z,78.60
2018-12-10T00:05:50.152Z,80.41
2018-12-10T00:08:21.000Z,78.70
2018-12-10T00:10:52.434Z,78.39
2018-12-10T00:13:23.277Z,78.77
2018-12-10T00:15:54.204Z,77.14
2018-12-10T00:18:25.015Z,77.17
2018-12-10T00:20:55.847Z,76.66
2018-12-10T00:23:26.556Z,76.92
2018-12-10T00:25:57.961Z,77.38
2018-12-10T00:28:28.829Z,77.07
2018-12-10T00:30:59.738Z,76.42
2018-12-10T00:33:30.516Z,76.67
2018-12-10T00:36:06.451Z,77.41
2018-12-10T00:38:37.264Z,77.16
2018-12-10T00:41:08.080Z,76.26
2018-12-10T00:43:39.265Z,76.33
2018-12-10T00:46:10.044Z,77.00
2018-12-10T00:48:40.777Z,77.77
2018-12-10T00:51:12.839Z,75.91
2018-12-10T00:53:43.595Z,75.91
2018-12-10T00:56:14.455Z,75.59
2018-12-10T00:58:45.287Z,76.39
2018-12-10T01:01:17.503Z,76.10
2018-12-10T01:03:48.465Z,76.17
2018-12-10T01:06:19.269Z,76.18
2018-12-10T01:08:50.755Z,77.40
2018-12-10T01:11:22.083Z,77.13
2018-12-10T01:13:53.005Z,76.90
2018-12-10T01:16:23.859Z,76.50
2018-12-10T01:18:54.585Z,77.07
2018-12-10T01:21:25.733Z,76.80
2018-12-10T01:23:56.541Z,75.97
2018-12-10T01:26:27.286Z,76.66
2018-12-10T01:28:58.011Z,76.30
2018-12-10T01:31:29.162Z,75.56
2018-12-10T01:34:00.069Z,76.46
2018-12-10T01:36:30.947Z,75.90
2018-12-10T01:39:01.799Z,75.49
2018-12-10T01:41:32.982Z,75.57
2018-12-10T01:44:03.984Z,75.59
2018-12-10T01:46:34.952Z,75.71
2018-12-10T01:49:05.810Z,75.15
2018-12-10T01:51:38.119Z,75.54
2018-12-10T01:54:09.047Z,75.15
2018-12-10T01:56:39.804Z,75.58
2018-12-10T01:59:10.560Z,75.23
2018-12-10T02:01:41.663Z,75.00
2018-12-10T02:04:12.483Z,75.45
2018-12-10T02:06:43.311Z,75.21
2018-12-10T02:09:14.054Z,75.39
2018-12-10T02:11:52.190Z,75.54
2018-12-10T02:16:59.478Z,75.04
2018-12-10T02:19:31.058Z,75.31
2018-12-10T02:22:02.939Z,76.01
2018-12-10T02:24:33.839Z,74.96
2018-12-10T02:27:22.382Z,75.37
2018-12-10T02:30:00.899Z,74.63
2018-12-10T02:32:35.547Z,75.61
2018-12-10T02:35:18.787Z,74.77
2018-12-10T02:38:06.230Z,74.14
2018-12-10T02:43:49.075Z,74.87
2018-12-10T02:46:26.608Z,74.03
2018-12-10T02:49:11.077Z,74.65
2018-12-10T02:51:44.962Z,74.72
2018-12-10T02:54:20.768Z,74.16
2018-12-10T02:57:03.432Z,74.39
2018-12-10T02:59:40.190Z,73.87
2018-12-10T03:05:05.975Z,74.17
2018-12-10T03:07:57.868Z,74.21
2018-12-10T03:10:29.020Z,74.14
2018-12-10T03:13:01.854Z,73.78
2018-12-10T03:15:44.397Z,74.27
2018-12-10T03:21:20.541Z,73.58
2018-12-10T03:23:59.440Z,73.98
2018-12-10T03:26:35.658Z,74.51
2018-12-10T03:29:11.833Z,73.96
2018-12-10T03:31:57.606Z,74.70
2018-12-10T03:34:35.341Z,74.65
2018-12-10T03:37:09.578Z,74.83
2018-12-10T03:39:41.165Z,75.29
2018-12-10T03:42:21.481Z,75.28
2018-12-10T03:44:56.936Z,74.76
2018-12-10T03:47:42.732Z,74.66
2018-12-10T03:50:14.892Z,75.37
2018-12-10T03:53:09.412Z,74.63
2018-12-10T04:04:45.603Z,74.40
2018-12-10T04:07:22.682Z,75.95
2018-12-10T04:09:58.539Z,75.63
2018-12-10T04:12:41.351Z,76.65
2018-12-10T04:15:15.782Z,75.96
2018-12-10T04:17:57.736Z,75.91
2018-12-10T04:26:24.748Z,76.39
2018-12-10T04:32:05.375Z,75.37
2018-12-10T04:34:41.979Z,76.43
2018-12-10T04:37:16.540Z,76.20
2018-12-10T04:39:49.414Z,77.61
2018-12-10T04:42:24.040Z,77.43
2018-12-10T04:44:56.514Z,78.21
2018-12-10T04:47:46.783Z,78.12
2018-12-10T04:50:26.714Z,77.39
2018-12-10T04:53:08.369Z,77.23
2018-12-10T04:55:50.326Z,76.98
2018-12-10T05:01:19.195Z,78.14
2018-12-10T05:03:57.390Z,77.51
2018-12-10T05:09:33.077Z,76.90
2018-12-10T05:12:17.001Z,76.63
2018-12-10T05:15:00.565Z,76.71
2018-12-10T05:17:38.493Z,76.40
2018-12-10T05:20:13.422Z,76.61
2018-12-10T05:22:59.519Z,75.80
2018-12-10T05:31:38.900Z,76.63
2018-12-10T05:34:19.472Z,76.87
2018-12-10T05:36:56.511Z,77.17
2018-12-10T05:39:31.279Z,79.80
2018-12-10T05:42:07.387Z,83.40
2018-12-10T05:44:44.485Z,86.02
2018-12-10T05:47:17.210Z,87.65
2018-12-10T05:49:50.057Z,88.90
2018-12-10T05:52:34.439Z,89.42
2018-12-10T05:55:16.517Z,90.78
2018-12-10T05:57:53.684Z,92.53
2018-12-10T06:00:27.570Z,93.26
2018-12-10T06:03:03.535Z,93.08
2018-12-10T06:05:39.946Z,92.71
2018-12-10T06:08:17.004Z,92.55
2018-12-10T06:10:53.810Z,93.19
2018-12-10T06:13:28.501Z,92.43
2018-12-10T06:16:00.692Z,92.71
2018-12-10T06:18:35.193Z,93.26
2018-12-10T06:21:13.758Z,92.86
2018-12-10T06:23:51.429Z,92.41
2018-12-10T06:26:24.744Z,92.87
2018-12-10T06:28:57.438Z,91.60
2018-12-10T06:45:24.622Z,93.40
2018-12-10T06:48:06.342Z,92.41
2018-12-10T06:50:40.893Z,93.69
2018-12-10T06:53:15.765Z,93.02
2018-12-10T06:55:51.995Z,91.92
2018-12-10T06:58:29.812Z,91.36
2018-12-10T07:01:02.512Z,91.24
2018-12-10T07:03:36.950Z,91.69
2018-12-10T07:06:08.406Z,91.74
2018-12-10T07:08:39.501Z,92.57
2018-12-10T07:11:10.377Z,91.09
2018-12-10T07:13:41.626Z,90.75
2018-12-10T07:16:13.599Z,90.71
2018-12-10T07:18:44.527Z,90.47
2018-12-10T07:21:15.799Z,90.62
2018-12-10T07:23:46.759Z,90.17
2018-12-10T07:26:19.300Z,90.14
2018-12-10T07:28:50.752Z,89.61
2018-12-10T07:31:24.219Z,88.79
2018-12-10T07:33:55.479Z,89.32
2018-12-10T07:36:26.415Z,88.84
2018-12-10T07:38:57.343Z,88.34
2018-12-10T07:41:48.548Z,87.83
2018-12-10T07:44:19.790Z,87.37
2018-12-10T07:46:52.256Z,88.18
2018-12-10T07:49:23.251Z,87.13
2018-12-10T07:51:54.190Z,86.57
2018-12-10T07:54:25.107Z,85.54
2018-12-10T07:56:57.398Z,85.34
2018-12-10T07:59:28.238Z,85.00
2018-12-10T08:01:59.121Z,84.82
2018-12-10T08:04:29.946Z,84.64
2018-12-10T08:07:00.832Z,85.23
2018-12-10T08:09:32.148Z,84.77
2018-12-10T08:12:08.500Z,84.92
2018-12-10T08:14:43.334Z,85.44
2018-12-10T08:17:17.628Z,85.38
2018-12-10T08:20:03.756Z,85.09
2018-12-10T08:22:39.002Z,84.63
2018-12-10T08:25:28.321Z,83.95
2018-12-10T08:28:02.716Z,84.37
2018-12-10T08:30:41.828Z,81.19
2018-12-10T08:33:31.658Z,80.65
2018-12-10T08:36:07.594Z,79.43
2018-12-10T08:38:41.939Z,79.12
2018-12-10T08:44:32.221Z,78.81
2018-12-10T08:52:27.698Z,79.19
2018-12-10T08:55:10.179Z,79.32
2018-12-10T09:00:46.360Z,78.34
2018-12-10T09:03:28.462Z,78.07
2018-12-10T09:06:04.568Z,77.57
2018-12-10T09:14:48.096Z,77.77
2018-12-10T09:17:26.415Z,76.61
2018-12-10T09:20:03.367Z,76.62
2018-12-10T09:25:44.165Z,75.85
2018-12-10T09:28:19.540Z,74.53
2018-12-10T09:30:57.192Z,75.09
2018-12-10T09:33:45.060Z,75.46
2018-12-10T09:36:19.839Z,75.42
2018-12-10T09:38:54.723Z,75.16
2018-12-10T09:41:38.726Z,75.25
2018-12-10T09:44:23.937Z,75.10
2018-12-10T09:50:10.884Z,75.84
2018-12-10T09:52:52.315Z,73.96
2018-12-10T09:55:42.102Z,73.36
2018-12-10T09:58:21.535Z,73.61
2018-12-10T10:04:00.806Z,72.46
2018-12-10T10:06:34.826Z,70.66
2018-12-10T10:09:11.658Z,70.58
2018-12-10T10:11:57.171Z,69.95
2018-12-10T10:14:45.067Z,70.29
2018-12-10T10:17:21.463Z,70.20
2018-12-10T10:22:49.292Z,69.29
2018-12-10T10:28:26.787Z,70.64
2018-12-10T10:31:04.310Z,70.26
2018-12-10T10:33:39.991Z,69.05
2018-12-10T10:36:20.324Z,69.53
2018-12-10T10:38:55.639Z,68.04
2018-12-10T10:41:44.355Z,69.90
2018-12-10T10:44:26.867Z,68.89
2018-12-10T10:47:05.560Z,67.66
2018-12-10T10:49:49.211Z,69.17
2018-12-10T10:52:37.602Z,68.04
2018-12-10T10:55:29.411Z,69.92
2018-12-10T10:58:22.471Z,68.69
2018-12-10T11:01:04.243Z,68.92
2018-12-10T11:09:42.091Z,68.49
2018-12-10T11:12:22.543Z,68.06
2018-12-10T11:15:02.844Z,69.07
2018-12-10T11:17:39.967Z,68.30
2018-12-10T11:26:09.994Z,68.38
2018-12-10T11:34:55.505Z,68.49
2018-12-10T11:37:49.672Z,68.55
2018-12-10T11:43:31.490Z,67.88
2018-12-10T11:46:07.443Z,67.51
2018-12-10T11:48:42.063Z,67.57
2018-12-10T11:54:18.354Z,67.33
2018-12-10T11:56:51.850Z,67.05
2018-12-10T11:59:25.687Z,67.67
2018-12-10T12:02:04.489Z,67.28
2018-12-10T12:04:52.300Z,67.98
2018-12-10T12:10:30.171Z,66.70
2018-12-10T12:19:11.704Z,67.75
2018-12-10T12:21:51.322Z,68.13
2018-12-10T12:24:37.520Z,66.62
2018-12-10T12:27:12.980Z,66.14
2018-12-10T12:29:57.468Z,65.74
2018-12-10T12:32:32.064Z,65.37
2018-12-10T12:35:09.189Z,65.26
2018-12-10T12:37:53.035Z,65.29
2018-12-10T12:40:27.468Z,64.35
2018-12-10T12:49:18.766Z,62.89
2018-12-10T12:52:10.946Z,62.40
2018-12-10T12:54:58.842Z,62.16
2018-12-10T12:57:36.448Z,62.48
2018-12-10T13:00:10.751Z,62.14
2018-12-10T13:02:47.059Z,62.80
2018-12-10T13:05:22.046Z,62.75
2018-12-10T13:07:59.611Z,62.34
2018-12-10T13:13:41.761Z,62.71
2018-12-10T13:16:25.703Z,61.66
2018-12-10T13:19:07.237Z,61.26
2018-12-10T13:33:40.439Z,62.66
2018-12-10T13:36:21.197Z,62.44
2018-12-10T13:39:03.314Z,62.61
2018-12-10T13:44:43.043Z,61.46
2018-12-10T13:47:18.578Z,60.46
2018-12-10T13:52:52.918Z,62.15
2018-12-10T13:55:28.889Z,62.40
2018-12-10T13:58:02.762Z,62.54
2018-12-10T14:00:38.915Z,63.14
2018-12-10T14:03:13.931Z,64.20
2018-12-10T14:08:57.279Z,64.46
2018-12-10T14:11:34.036Z,66.22
2018-12-10T14:14:08.952Z,66.76
2018-12-10T14:16:47.507Z,67.81
2018-12-10T14:19:22.874Z,67.94
2018-12-10T14:21:58.240Z,68.82
2018-12-10T14:24:34.563Z,69.21
2018-12-10T14:27:09.266Z,69.70
2018-12-10T14:29:45.839Z,69.75
2018-12-10T14:32:35.096Z,69.85
2018-12-10T14:35:24.160Z,70.53
2018-12-10T14:37:59.825Z,70.46
2018-12-10T14:40:36.378Z,70.55
2018-12-10T14:46:21.772Z,70.93
2018-12-10T14:52:01.588Z,70.89
2018-12-10T14:54:34.154Z,70.63
2018-12-10T14:57:10.224Z,70.62
2018-12-10T14:59:46.900Z,70.57
2018-12-10T15:02:19.938Z,70.88
2018-12-10T15:05:01.780Z,70.97
2018-12-10T15:07:33.714Z,72.04
2018-12-10T15:10:15.681Z,71.57
2018-12-10T15:12:51.967Z,71.31
2018-12-10T15:15:26.237Z,70.50
2018-12-10T15:17:59.288Z,70.66
2018-12-10T15:20:31.528Z,70.21
2018-12-10T15:23:05.598Z,70.08
2018-12-10T15:25:41.046Z,72.75
2018-12-10T15:28:17.283Z,76.39
2018-12-10T15:30:53.689Z,78.55
2018-12-10T15:33:28.186Z,79.78
2018-12-10T15:36:02.388Z,80.59
2018-12-10T15:38:36.856Z,80.96
2018-12-10T15:41:13.528Z,82.30
2018-12-10T15:43:47.673Z,82.95
2018-12-10T15:46:22.232Z,82.71
2018-12-10T15:48:57.248Z,81.90
2018-12-10T15:51:31.500Z,82.23
2018-12-10T15:54:04.669Z,81.88
2018-12-10T15:56:39.683Z,81.50
2018-12-10T15:59:12.535Z,81.90
2018-12-10T16:01:47.062Z,82.56
2018-12-10T16:04:24.705Z,85.29
2018-12-10T16:07:00.196Z,84.10
2018-12-10T16:09:35.391Z,83.54
2018-12-10T16:12:10.213Z,83.67
2018-12-10T16:14:45.144Z,83.84
2018-12-10T16:17:19.291Z,84.40
2018-12-10T16:19:54.535Z,83.22
2018-12-10T16:22:26.311Z,83.73
2018-12-10T16:25:02.470Z,84.16
2018-12-10T16:27:40.922Z,83.58
2018-12-10T16:30:16.949Z,80.62
2018-12-10T16:32:53.609Z,80.51
2018-12-10T16:35:31.572Z,79.63
2018-12-10T16:38:07.244Z,79.45
2018-12-10T16:40:42.281Z,80.11
2018-12-10T16:43:16.570Z,79.71
2018-12-10T16:45:49.339Z,78.04
2018-12-10T16:48:25.655Z,77.83
2018-12-10T16:51:02.954Z,77.04
2018-12-10T16:53:41.168Z,77.21
2018-12-10T16:56:19.810Z,76.87
2018-12-10T16:58:54.230Z,76.88
2018-12-10T17:01:29.131Z,76.70
2018-12-10T17:04:02.342Z,76.25
2018-12-10T17:06:33.356Z,76.23
2018-12-10T17:09:09.766Z,75.91
2018-12-10T17:11:45.144Z,74.86
2018-12-10T17:14:20.004Z,74.89
2018-12-10T17:16:55.464Z,74.86
2018-12-10T17:19:28.026Z,74.94
2018-12-10T17:22:15.704Z,75.44
2018-12-10T17:24:50.653Z,74.09
2018-12-10T17:27:22.874Z,73.49
2018-12-10T17:29:59.979Z,73.13
2018-12-10T17:32:34.921Z,72.92
2018-12-10T17:35:07.876Z,72.45
2018-12-10T17:37:39.150Z,72.59
2018-12-10T17:40:11.712Z,72.70
2018-12-10T17:42:45.327Z,72.38
2018-12-10T17:45:20.042Z,72.30
2018-12-10T17:47:55.166Z,71.48
2018-12-10T17:50:26.322Z,71.77
2018-12-10T17:53:01.416Z,72.50
2018-12-10T17:55:37.951Z,71.82
2018-12-10T17:58:13.055Z,71.13
2018-12-10T18:00:46.106Z,71.54
2018-12-10T18:03:20.712Z,72.17
2018-12-10T18:05:52.540Z,71.55
2018-12-10T18:08:28.989Z,72.18
2018-12-10T18:10:59.933Z,72.11
2018-12-10T18:13:31.669Z,72.54
2018-12-10T18:16:02.621Z,72.25
2018-12-10T18:18:33.731Z,71.95
2018-12-10T18:21:04.696Z,72.00
2018-12-10T18:23:36.107Z,71.85
2018-12-10T18:26:10.380Z,71.22
2018-12-10T18:28:46.349Z,70.24
2018-12-10T18:31:17.407Z,69.52
2018-12-10T18:33:48.887Z,69.94
2018-12-10T18:36:20.402Z,69.93
2018-12-10T18:38:51.514Z,70.38
2018-12-10T18:41:22.440Z,70.29
2018-12-10T18:43:53.302Z,69.75
2018-12-10T18:46:24.142Z,69.82
2018-12-10T18:48:55.332Z,69.48
2018-12-10T18:51:33.021Z,69.74
2018-12-10T18:54:05.263Z,70.20
2018-12-10T18:56:36.407Z,69.85
2018-12-10T18:59:07.865Z,70.29
2018-12-10T19:01:38.775Z,70.85
2018-12-10T19:04:09.941Z,71.99
2018-12-10T19:06:41.121Z,74.09
2018-12-10T19:09:12.299Z,77.32
2018-12-10T19:11:43.708Z,79.62
2018-12-10T19:14:14.968Z,81.48
2018-12-10T19:16:45.967Z,85.67
2018-12-10T19:19:17.003Z,87.63
2018-12-10T19:21:47.807Z,89.92
2018-12-10T19:24:19.289Z,90.59
2018-12-10T19:26:50.287Z,90.97
2018-12-10T19:29:21.258Z,92.42
2018-12-10T19:31:52.122Z,91.27
2018-12-10T19:34:23.022Z,91.16
2018-12-10T19:36:56.725Z,93.34
2018-12-10T19:39:27.620Z,94.17
2018-12-10T19:41:58.481Z,92.34
2018-12-10T19:44:29.558Z,93.73
2018-12-10T19:47:00.936Z,91.61
2018-12-10T19:49:31.802Z,92.57
2018-12-10T19:52:03.001Z,92.03
2018-12-10T19:54:33.787Z,93.53
2018-12-10T19:57:04.640Z,92.60
2018-12-10T19:59:35.478Z,91.17
2018-12-10T20:02:07.638Z,92.35
2018-12-10T20:04:39.003Z,92.28
2018-12-10T20:07:10.066Z,92.81
2018-12-10T20:09:40.880Z,92.97
2018-12-10T20:12:14.067Z,93.85
2018-12-10T20:14:45.332Z,94.10
2018-12-10T20:17:16.170Z,93.36
2018-12-10T20:19:48.040Z,93.67
2018-12-10T20:22:18.842Z,94.25
2018-12-10T20:24:50.268Z,94.58
2018-12-10T20:27:21.730Z,94.18
2018-12-10T20:29:52.730Z,94.17
2018-12-10T20:32:25.091Z,94.06
2018-12-10T20:34:56.425Z,93.94
2018-12-10T20:37:27.897Z,92.72
2018-12-10T20:39:59.984Z,93.56
2018-12-10T20:42:30.890Z,93.71
2018-12-10T20:45:02.093Z,94.65
2018-12-10T20:47:32.895Z,95.47
2018-12-10T20:50:03.803Z,95.24
2018-12-10T20:52:34.660Z,93.75
2018-12-10T20:55:06.933Z,93.00
2018-12-10T20:57:41.569Z,93.57
2018-12-10T21:00:12.964Z,92.94
2018-12-10T21:02:44.153Z,93.64
2018-12-10T21:05:15.106Z,93.23
2018-12-10T21:07:49.691Z,93.01
2018-12-10T21:10:22.433Z,93.32
2018-12-10T21:12:55.790Z,93.37
2018-12-10T21:15:32.198Z,92.66
2018-12-10T21:18:05.760Z,92.54
2018-12-10T21:25:38.316Z,93.15
2018-12-10T21:28:15.018Z,92.62
2018-12-10T21:30:51.413Z,91.98
2018-12-10T21:33:23.084Z,92.08
2018-12-10T21:35:54.688Z,92.21
2018-12-10T21:38:28.665Z,92.09
2018-12-10T21:41:08.888Z,92.06
2018-12-10T21:43:50.261Z,91.32
2018-12-10T21:46:26.089Z,90.83
2018-12-10T21:49:02.973Z,90.14
2018-12-10T21:51:39.367Z,89.87
2018-12-10T21:54:11.113Z,88.35
2018-12-10T21:56:41.980Z,87.58
2018-12-10T21:59:17.802Z,87.20
2018-12-10T22:01:54.467Z,85.44
2018-12-10T22:04:33.691Z,85.33
2018-12-10T22:07:15.636Z,82.99
2018-12-10T22:09:53.344Z,84.55
2018-12-10T22:12:24.887Z,84.60
2018-12-10T22:14:55.835Z,85.25
2018-12-10T22:17:26.794Z,85.78
2018-12-10T22:20:15.730Z,84.84
2018-12-10T22:22:55.552Z,86.69
2018-12-10T22:25:28.998Z,85.74
2018-12-10T22:28:21.803Z,86.45
2018-12-10T22:30:58.287Z,85.84
2018-12-10T22:33:39.719Z,86.48
2018-12-10T22:36:17.453Z,87.96
2018-12-10T22:38:57.423Z,87.19
2018-12-10T22:41:32.169Z,87.47
2018-12-10T22:44:13.311Z,87.87
2018-12-10T22:47:03.639Z,87.68
2018-12-10T22:49:40.025Z,87.63
2018-12-10T22:52:12.291Z,87.38
2018-12-10T22:54:49.012Z,87.14
2018-12-10T22:57:20.051Z,87.38
2018-12-10T22:59:51.517Z,87.50
2018-12-10T23:02:22.342Z,87.42
2018-12-10T23:04:53.224Z,86.82
2018-12-10T23:07:24.126Z,86.87
2018-12-10T23:09:55.918Z,87.19
2018-12-10T23:12:27.110Z,87.23
2018-12-10T23:14:58.068Z,87.87
2018-12-10T23:17:29.025Z,87.12
2018-12-10T23:20:00.318Z,86.58
2018-12-10T23:22:31.231Z,86.55
2018-12-10T23:25:02.123Z,86.42
2018-12-10T23:27:33.123Z,86.41
2018-12-10T23:30:05.198Z,86.03
2018-12-10T23:32:36.072Z,85.64
2018-12-10T23:35:07.453Z,86.10
2018-12-10T23:37:38.395Z,86.19
2018-12-10T23:40:09.398Z,85.71
2018-12-10T23:42:44.249Z,85.75
2018-12-10T23:45:15.288Z,86.69
2018-12-10T23:47:47.766Z,86.61
2018-12-10T23:50:18.684Z,87.17
2018-12-10T23:52:53.663Z,88.23
2018-12-10T23:55:29.203Z,89.03
2018-12-10T23:58:04.164Z,88.04
